Time;durP1;ratioP1;P1;durP2;ratioP2;P2;SDS_P1;SDS_P2;PMS_P1;PMS_P2;Temp;Humidity;BMP_temperature;BMP_pressure;BME280_temperature;BME280_humidity;BME280_pressure;Samples;Min_cycle;Max_cycle;Signal;HPM_P1;HPM_P2
2022/04/09 00:02:14;;;;;;;0.90;0.90;;;0.80;99.90;;;;;;5096186;28;20709;-69
2022/04/09 00:04:41;;;;;;;2.23;1.00;;;0.90;99.90;;;;;;5096228;28;20349;-69
2022/04/09 00:07:07;;;;;;;0.80;0.80;;;0.80;99.90;;;;;;5096592;28;20245;-69
2022/04/09 00:09:35;;;;;;;2.43;1.40;;;0.80;99.90;;;;;;5097418;28;20227;-70
2022/04/09 00:12:02;;;;;;;1.30;1.20;;;0.80;99.90;;;;;;5098711;28;20230;-69
2022/04/09 00:14:29;;;;;;;1.40;1.20;;;0.80;99.90;;;;;;5100183;28;20651;-69
2022/04/09 00:16:56;;;;;;;1.33;1.13;;;0.80;99.90;;;;;;5102512;28;20192;-69
2022/04/09 00:19:22;;;;;;;1.20;1.10;;;0.80;99.90;;;;;;5102248;28;20196;-69
2022/04/09 00:21:49;;;;;;;2.83;1.30;;;0.70;99.90;;;;;;5103270;28;20254;-69
2022/04/09 00:24:16;;;;;;;1.63;1.20;;;0.70;99.90;;;;;;5102310;28;20231;-69
2022/04/09 00:26:44;;;;;;;1.47;1.23;;;0.80;99.90;;;;;;5101583;28;20212;-69
2022/04/09 00:29:11;;;;;;;1.60;1.50;;;0.70;99.90;;;;;;5102008;28;20245;-69
2022/04/09 00:31:37;;;;;;;1.57;1.47;;;0.70;99.90;;;;;;5100951;28;20200;-69
2022/04/09 00:34:05;;;;;;;1.53;1.43;;;0.70;99.90;;;;;;5099432;28;20197;-68
2022/04/09 00:36:31;;;;;;;2.70;2.20;;;0.70;99.90;;;;;;5096067;28;20675;-68
2022/04/09 00:38:58;;;;;;;2.17;1.80;;;0.80;99.90;;;;;;5095406;28;20604;-68
2022/04/09 00:41:24;;;;;;;2.47;2.20;;;0.70;99.90;;;;;;5095409;28;20192;-68
2022/04/09 00:43:52;;;;;;;3.20;2.10;;;0.80;99.90;;;;;;5095937;28;20250;-68
2022/04/09 00:46:19;;;;;;;2.00;1.80;;;0.80;99.90;;;;;;5095335;28;20544;-68
2022/04/09 00:48:46;;;;;;;2.33;2.00;;;0.80;99.90;;;;;;5095470;28;20200;-68
2022/04/09 00:51:13;;;;;;;1.97;1.80;;;0.80;99.90;;;;;;5095499;28;20200;-68
2022/04/09 00:53:41;;;;;;;2.67;1.83;;;0.80;99.90;;;;;;5095277;28;20200;-68
2022/04/09 00:56:21;;;;;;;2.07;1.80;;;0.80;99.90;;;;;;5095380;28;20223;-68
2022/04/09 00:58:55;;;;;;;1.60;1.50;;;0.90;99.90;;;;;;5096276;28;20628;-69
2022/04/09 01:01:23;;;;;;;3.50;1.13;;;0.80;99.90;;;;;;5096398;28;20213;-69
2022/04/09 01:03:51;;;;;;;1.67;1.27;;;0.80;99.90;;;;;;5096423;28;20670;-69
2022/04/09 01:06:18;;;;;;;1.30;1.20;;;0.80;99.90;;;;;;5096246;28;20255;-69
2022/04/09 01:08:44;;;;;;;1.30;1.20;;;0.80;99.90;;;;;;5095484;28;20196;-69
2022/04/09 01:11:12;;;;;;;1.60;1.50;;;0.80;99.90;;;;;;5094668;28;20249;-69
2022/04/09 01:13:39;;;;;;;1.70;1.53;;;0.80;99.90;;;;;;5094870;28;20702;-69
2022/04/09 01:16:08;;;;;;;1.90;1.70;;;0.80;99.90;;;;;;5094966;28;20278;-69
2022/04/09 01:18:36;;;;;;;2.10;1.90;;;0.80;99.90;;;;;;5094956;28;20643;-70
2022/04/09 01:21:04;;;;;;;2.83;2.63;;;0.80;99.90;;;;;;5094735;28;20340;-69
2022/04/09 01:23:33;;;;;;;3.73;3.30;;;0.70;99.90;;;;;;5094387;28;20629;-69
2022/04/09 01:26:01;;;;;;;3.90;3.30;;;0.70;99.90;;;;;;5094501;28;20665;-69
2022/04/09 01:28:28;;;;;;;5.67;4.77;;;0.80;99.90;;;;;;5094443;28;20196;-69
2022/04/09 01:30:55;;;;;;;7.20;5.30;;;0.80;99.90;;;;;;5094525;28;20224;-69
2022/04/09 01:33:23;;;;;;;7.70;5.77;;;0.70;99.90;;;;;;5094637;28;20192;-69
2022/04/09 01:35:51;;;;;;;11.13;6.87;;;0.70;99.90;;;;;;5094403;28;20258;-69
2022/04/09 01:38:18;;;;;;;8.77;7.03;;;0.70;99.90;;;;;;5094116;28;20197;-70
2022/04/09 01:40:46;;;;;;;9.37;6.47;;;0.70;99.90;;;;;;5094353;28;20201;-70
2022/04/09 01:43:12;;;;;;;10.43;7.40;;;0.70;99.90;;;;;;5093877;28;20656;-70
2022/04/09 01:45:39;;;;;;;11.90;8.20;;;0.70;99.90;;;;;;5093988;28;20242;-70
2022/04/09 01:48:06;;;;;;;14.50;8.70;;;0.70;99.90;;;;;;5094093;28;20196;-70
2022/04/09 01:50:33;;;;;;;12.83;8.60;;;0.70;99.90;;;;;;5093916;28;20690;-70
2022/04/09 01:53:00;;;;;;;11.10;7.97;;;0.80;99.90;;;;;;5093760;28;20200;-70
2022/04/09 01:55:27;;;;;;;13.73;8.93;;;0.80;99.90;;;;;;5093783;28;20663;-70
2022/04/09 01:57:55;;;;;;;14.90;9.43;;;0.80;99.90;;;;;;5093862;28;20197;-70
2022/04/09 02:00:23;;;;;;;13.73;8.70;;;0.80;99.90;;;;;;5093848;28;20192;-70
2022/04/09 02:02:49;;;;;;;13.47;8.90;;;0.80;99.90;;;;;;5093823;28;20196;-70
2022/04/09 02:05:16;;;;;;;15.67;9.80;;;0.80;99.90;;;;;;5094023;28;20200;-70
2022/04/09 02:07:44;;;;;;;17.63;9.67;;;0.80;99.90;;;;;;5094227;28;20196;-70
2022/04/09 02:10:12;;;;;;;16.10;9.93;;;0.80;99.90;;;;;;5093729;28;20231;-71
2022/04/09 02:12:39;;;;;;;15.73;9.43;;;0.80;99.90;;;;;;5093701;28;20250;-71
2022/04/09 02:15:08;;;;;;;16.63;9.37;;;0.80;99.90;;;;;;5093621;28;20200;-71
2022/04/09 02:17:36;;;;;;;16.03;9.37;;;0.80;99.90;;;;;;5093569;28;20196;-71
2022/04/09 02:20:03;;;;;;;16.83;10.80;;;0.80;99.90;;;;;;5093055;28;20203;-71
2022/04/09 02:22:35;;;;;;;20.47;11.50;;;0.80;99.90;;;;;;5093613;28;20208;-71
2022/04/09 02:25:02;;;;;;;22.00;12.40;;;0.90;99.90;;;;;;5093496;28;20236;-71
2022/04/09 02:27:28;;;;;;;20.33;12.80;;;0.90;99.90;;;;;;5093591;28;20261;-70
2022/04/09 02:29:55;;;;;;;22.33;13.07;;;0.90;99.90;;;;;;5093399;28;20215;-70
2022/04/09 02:32:24;;;;;;;24.23;13.70;;;0.90;99.90;;;;;;5093385;28;20594;-71
2022/04/09 02:34:52;;;;;;;23.27;14.50;;;0.90;99.90;;;;;;5093786;28;20196;-71
2022/04/09 02:37:18;;;;;;;23.30;14.13;;;0.90;99.90;;;;;;5093962;28;20231;-71
2022/04/09 02:39:45;;;;;;;25.80;14.70;;;0.90;99.90;;;;;;5099687;28;20262;-71
2022/04/09 02:42:14;;;;;;;23.03;14.17;;;0.90;99.90;;;;;;5099086;28;20192;-71
2022/04/09 02:44:40;;;;;;;23.83;14.47;;;0.90;99.90;;;;;;5098312;28;20200;-71
2022/04/09 02:47:07;;;;;;;24.17;14.70;;;0.90;99.90;;;;;;5098866;28;20204;-71
2022/04/09 02:49:35;;;;;;;25.47;15.00;;;0.90;99.90;;;;;;5098284;28;20679;-71
2022/04/09 02:52:02;;;;;;;22.37;14.00;;;0.90;99.90;;;;;;5097968;28;20192;-71
2022/04/09 02:54:29;;;;;;;22.73;14.83;;;0.90;99.90;;;;;;5097095;28;20647;-71
2022/04/09 02:56:55;;;;;;;28.53;15.33;;;1.00;99.90;;;;;;5093207;28;20261;-70
2022/04/09 02:59:22;;;;;;;27.93;15.80;;;0.90;99.90;;;;;;5093035;28;20282;-70
2022/04/09 03:01:48;;;;;;;25.87;15.27;;;1.00;99.90;;;;;;5092977;28;20655;-70
2022/04/09 03:04:15;;;;;;;27.57;16.00;;;1.00;99.90;;;;;;5093128;28;20197;-70
2022/04/09 03:06:43;;;;;;;28.53;17.27;;;1.00;99.90;;;;;;5093072;28;20196;-70
2022/04/09 03:09:10;;;;;;;30.10;17.37;;;1.10;99.90;;;;;;5093192;28;20200;-70
2022/04/09 03:11:37;;;;;;;28.30;18.90;;;1.10;99.90;;;;;;5092961;28;20756;-70
2022/04/09 03:14:04;;;;;;;31.30;17.83;;;1.10;99.90;;;;;;5092859;28;20648;-70
2022/04/09 03:16:32;;;;;;;28.17;18.33;;;1.10;99.90;;;;;;5093608;28;20250;-71
2022/04/09 03:18:58;;;;;;;29.27;19.00;;;1.10;99.90;;;;;;5094693;28;20192;-70
2022/04/09 03:21:25;;;;;;;30.37;19.17;;;1.10;99.90;;;;;;5094944;28;20204;-70
2022/04/09 03:23:53;;;;;;;34.93;20.43;;;1.20;99.90;;;;;;5094535;28;20282;-70
2022/04/09 03:26:20;;;;;;;30.10;18.97;;;1.20;99.90;;;;;;5093484;28;20253;-70
2022/04/09 03:28:47;;;;;;;33.93;21.60;;;1.20;99.90;;;;;;5092988;28;20295;-70
2022/04/09 03:31:14;;;;;;;35.13;21.40;;;1.20;99.90;;;;;;5093023;28;20228;-70
2022/04/09 03:33:40;;;;;;;31.50;21.03;;;1.20;99.90;;;;;;5095921;28;20609;-70
2022/04/09 03:36:07;;;;;;;37.50;22.20;;;1.20;99.90;;;;;;5096620;28;20269;-70
2022/04/09 03:38:35;;;;;;;35.50;22.00;;;1.30;99.90;;;;;;5096601;28;20192;-70
2022/04/09 03:41:02;;;;;;;37.50;22.63;;;1.30;99.90;;;;;;5096386;28;20249;-70
2022/04/09 03:43:30;;;;;;;36.57;23.10;;;1.30;99.90;;;;;;5096200;28;20200;-70
2022/04/09 03:45:57;;;;;;;35.80;22.77;;;1.30;99.90;;;;;;5096569;28;20192;-70
2022/04/09 03:48:24;;;;;;;30.37;20.00;;;1.30;99.90;;;;;;5096441;28;20196;-70
2022/04/09 03:50:50;;;;;;;40.37;22.33;;;1.40;99.90;;;;;;5096081;28;20628;-70
2022/04/09 03:53:19;;;;;;;35.07;21.60;;;1.30;99.90;;;;;;5096098;28;20262;-70
2022/04/09 03:55:46;;;;;;;38.17;22.83;;;1.40;99.90;;;;;;5096064;28;20250;-70
2022/04/09 03:58:15;;;;;;;38.10;22.87;;;1.40;99.90;;;;;;5096177;28;20259;-70
2022/04/09 04:00:42;;;;;;;36.70;23.03;;;1.40;99.90;;;;;;5095906;28;20558;-70
2022/04/09 04:03:09;;;;;;;40.97;24.23;;;1.40;99.90;;;;;;5096078;28;20229;-70
2022/04/09 04:05:36;;;;;;;39.30;23.67;;;1.40;99.90;;;;;;5096083;28;20555;-70
2022/04/09 04:08:03;;;;;;;36.00;22.17;;;1.40;99.90;;;;;;5096074;28;20625;-70
2022/04/09 04:10:30;;;;;;;38.50;23.33;;;1.40;99.90;;;;;;5096043;28;20282;-70
2022/04/09 04:12:57;;;;;;;31.17;21.13;;;1.40;99.90;;;;;;5096433;28;20196;-70
2022/04/09 04:15:25;;;;;;;32.67;21.63;;;1.40;99.90;;;;;;5096919;28;20203;-70
2022/04/09 04:17:51;;;;;;;30.70;21.20;;;1.40;99.90;;;;;;5099235;28;20196;-70
2022/04/09 04:20:18;;;;;;;33.17;22.03;;;1.40;99.90;;;;;;5100636;28;20200;-71
2022/04/09 04:22:45;;;;;;;34.70;20.57;;;1.40;99.90;;;;;;5101582;28;20196;-71
2022/04/09 04:25:11;;;;;;;30.53;20.60;;;1.40;99.90;;;;;;5103270;28;20228;-72
2022/04/09 04:27:42;;;;;;;31.97;22.43;;;1.40;99.90;;;;;;5100958;28;20197;-72
2022/04/09 04:30:10;;;;;;;36.63;22.33;;;1.40;99.90;;;;;;5102974;28;20224;-72
2022/04/09 04:32:38;;;;;;;34.17;20.00;;;1.40;99.90;;;;;;5101834;28;20196;-72
2022/04/09 04:35:05;;;;;;;31.03;21.53;;;1.40;99.90;;;;;;5097141;28;20196;-71
2022/04/09 04:37:37;;;;;;;35.00;21.03;;;1.40;99.90;;;;;;5096586;28;20616;-71
2022/04/09 04:40:05;;;;;;;30.03;20.37;;;1.40;99.90;;;;;;5097381;28;20203;-71
2022/04/09 04:42:31;;;;;;;30.93;20.10;;;1.40;99.90;;;;;;5096416;28;20193;-71
2022/04/09 04:44:58;;;;;;;30.33;19.13;;;1.30;99.90;;;;;;5095524;28;20809;-71
2022/04/09 04:47:25;;;;;;;28.13;18.77;;;1.30;99.90;;;;;;5095209;28;20196;-71
2022/04/09 04:49:53;;;;;;;29.93;19.57;;;1.30;99.90;;;;;;5095184;28;20196;-71
2022/04/09 04:52:20;;;;;;;29.37;19.63;;;1.30;99.90;;;;;;5095626;28;20253;-71
2022/04/09 04:54:46;;;;;;;30.30;19.53;;;1.30;99.90;;;;;;5095342;28;20563;-71
2022/04/09 04:57:13;;;;;;;34.27;21.60;;;1.30;99.90;;;;;;5095327;28;20325;-71
2022/04/09 04:59:40;;;;;;;30.60;21.87;;;1.20;99.90;;;;;;5095228;28;20643;-71
2022/04/09 05:02:07;;;;;;;29.23;19.33;;;1.30;99.90;;;;;;5095362;28;20200;-71
2022/04/09 05:04:34;;;;;;;26.87;18.90;;;1.30;99.90;;;;;;5095164;28;20196;-71
2022/04/09 05:07:01;;;;;;;32.50;20.10;;;1.30;99.90;;;;;;5095067;28;20196;-71
2022/04/09 05:09:28;;;;;;;28.20;19.60;;;1.30;99.90;;;;;;5095134;28;20200;-71
2022/04/09 05:11:55;;;;;;;32.13;19.50;;;1.30;99.90;;;;;;5094777;28;20224;-71
2022/04/09 05:14:22;;;;;;;25.67;18.30;;;1.40;99.90;;;;;;5094885;28;20226;-71
2022/04/09 05:16:49;;;;;;;28.63;18.77;;;1.40;99.90;;;;;;5094743;28;20589;-71
2022/04/09 05:19:15;;;;;;;25.40;17.97;;;1.40;99.90;;;;;;5094834;28;20567;-71
2022/04/09 05:21:45;;;;;;;26.77;18.20;;;1.40;99.90;;;;;;5094912;28;20223;-71
2022/04/09 05:24:13;;;;;;;24.50;17.90;;;1.50;99.90;;;;;;5094696;28;20233;-71
2022/04/09 05:26:40;;;;;;;28.17;17.40;;;1.50;99.90;;;;;;5094848;28;20196;-71
2022/04/09 05:29:07;;;;;;;25.93;17.27;;;1.40;99.90;;;;;;5094691;28;20253;-71
2022/04/09 05:31:34;;;;;;;26.40;17.63;;;1.40;99.90;;;;;;5094629;28;20224;-70
2022/04/09 05:34:00;;;;;;;27.07;18.20;;;1.40;99.90;;;;;;5094511;28;20204;-71
2022/04/09 05:36:27;;;;;;;27.07;18.13;;;1.40;99.90;;;;;;5094445;28;20201;-70
2022/04/09 05:38:53;;;;;;;27.20;17.30;;;1.40;99.90;;;;;;5094324;28;20196;-71
2022/04/09 05:41:21;;;;;;;23.30;16.63;;;1.40;99.90;;;;;;5094433;28;20206;-71
2022/04/09 05:43:48;;;;;;;25.73;16.83;;;1.40;99.90;;;;;;5094262;28;20200;-71
2022/04/09 05:46:15;;;;;;;24.93;17.33;;;1.50;99.90;;;;;;5094082;28;20192;-71
2022/04/09 05:48:41;;;;;;;24.83;17.93;;;1.50;99.90;;;;;;5094340;28;20257;-71
2022/04/09 05:51:08;;;;;;;25.47;17.60;;;1.50;99.90;;;;;;5093921;28;20699;-71
2022/04/09 05:53:35;;;;;;;25.07;16.33;;;1.60;99.90;;;;;;5094406;28;20283;-71
2022/04/09 05:56:02;;;;;;;25.30;17.13;;;1.50;99.90;;;;;;5093852;28;20200;-71
2022/04/09 05:58:30;;;;;;;24.50;18.00;;;1.50;99.90;;;;;;5093823;28;20199;-71
2022/04/09 06:01:00;;;;;;;22.73;17.10;;;1.50;99.90;;;;;;5093922;28;20202;-71
2022/04/09 06:03:26;;;;;;;27.03;18.00;;;1.60;99.90;;;;;;5093988;28;20202;-71
2022/04/09 06:05:53;;;;;;;28.27;18.90;;;1.60;99.90;;;;;;5093812;28;20196;-71
2022/04/09 06:08:19;;;;;;;26.97;17.40;;;1.60;99.90;;;;;;5094339;28;20249;-70
2022/04/09 06:10:46;;;;;;;24.60;18.00;;;1.60;99.90;;;;;;5093557;28;20212;-70
2022/04/09 06:13:13;;;;;;;25.30;17.03;;;1.60;99.90;;;;;;5093768;28;20222;-70
2022/04/09 06:15:42;;;;;;;24.53;17.37;;;1.60;99.90;;;;;;5094472;28;20196;-73
2022/04/09 06:18:10;;;;;;;24.27;17.27;;;1.60;99.90;;;;;;5093333;28;20705;-72
2022/04/09 06:20:37;;;;;;;26.70;16.90;;;1.60;99.90;;;;;;5093568;28;20658;-71
2022/04/09 06:23:04;;;;;;;22.40;17.00;;;1.60;99.90;;;;;;5093379;28;20249;-70
2022/04/09 06:25:31;;;;;;;26.20;18.17;;;1.60;99.90;;;;;;5093455;28;20207;-71
2022/04/09 06:27:57;;;;;;;32.17;17.83;;;1.60;99.90;;;;;;5093751;28;20245;-70
2022/04/09 06:30:24;;;;;;;24.50;17.33;;;1.70;99.90;;;;;;5093832;28;20211;-70
2022/04/09 06:32:52;;;;;;;31.37;19.90;;;1.70;99.90;;;;;;5093574;28;20250;-71
2022/04/09 06:35:19;;;;;;;25.40;17.77;;;2.00;99.90;;;;;;5093582;28;20203;-71
2022/04/09 06:37:45;;;;;;;23.93;17.73;;;2.00;99.90;;;;;;5093568;28;20721;-72
2022/04/09 06:40:13;;;;;;;26.50;17.83;;;2.20;99.90;;;;;;5093404;28;20324;-71
2022/04/09 06:42:39;;;;;;;24.30;15.57;;;2.30;99.90;;;;;;5093343;28;20728;-72
2022/04/09 06:45:08;;;;;;;21.50;15.73;;;2.30;99.90;;;;;;5093631;28;20242;-72
2022/04/09 06:47:36;;;;;;;19.03;14.50;;;2.30;99.90;;;;;;5093563;28;20192;-71
2022/04/09 06:50:08;;;;;;;23.90;15.60;;;2.30;99.90;;;;;;5093799;28;20269;-71
2022/04/09 06:52:34;;;;;;;23.57;15.17;;;2.50;99.90;;;;;;5094842;28;20273;-71
2022/04/09 06:55:01;;;;;;;19.17;15.47;;;2.60;99.90;;;;;;5094818;28;20196;-70
2022/04/09 06:57:28;;;;;;;18.77;13.43;;;2.60;99.90;;;;;;5095322;28;20196;-70
2022/04/09 06:59:57;;;;;;;17.07;14.07;;;2.60;99.90;;;;;;5094761;28;20203;-69
2022/04/09 07:02:23;;;;;;;20.73;13.67;;;2.60;99.90;;;;;;5094448;28;20204;-70
2022/04/09 07:04:50;;;;;;;23.60;15.90;;;2.50;99.90;;;;;;5094787;28;20200;-69
2022/04/09 07:07:21;;;;;;;20.90;14.17;;;2.60;99.90;;;;;;5094849;28;20532;-70
2022/04/09 07:09:48;;;;;;;21.13;14.30;;;2.50;99.90;;;;;;5098919;28;20200;-69
2022/04/09 07:12:15;;;;;;;20.40;14.30;;;2.30;99.90;;;;;;5098265;28;20220;-70
2022/04/09 07:14:41;;;;;;;20.30;14.57;;;2.30;99.90;;;;;;5098532;28;20249;-70
2022/04/09 07:17:08;;;;;;;25.17;15.90;;;2.40;99.90;;;;;;5098070;28;20265;-69
2022/04/09 07:19:35;;;;;;;21.17;14.30;;;2.40;99.90;;;;;;5098664;28;20196;-71
2022/04/09 07:22:02;;;;;;;20.87;15.20;;;2.40;99.90;;;;;;5098317;28;20239;-71
2022/04/09 07:24:30;;;;;;;19.20;14.23;;;2.40;99.90;;;;;;5098382;28;20691;-70
2022/04/09 07:26:56;;;;;;;19.93;14.17;;;2.40;99.90;;;;;;5098095;28;20259;-70
2022/04/09 07:29:23;;;;;;;19.70;14.20;;;2.40;99.90;;;;;;5097883;28;20273;-71
2022/04/09 07:31:49;;;;;;;19.47;14.33;;;2.50;99.90;;;;;;5097654;28;20311;-71
2022/04/09 07:34:16;;;;;;;22.47;14.73;;;2.50;99.90;;;;;;5097502;28;20192;-71
2022/04/09 07:36:43;;;;;;;18.30;13.50;;;2.60;99.90;;;;;;5097310;28;20199;-72
2022/04/09 07:39:10;;;;;;;16.07;13.30;;;2.60;99.90;;;;;;5097355;28;20198;-72
2022/04/09 07:41:38;;;;;;;17.87;11.70;;;2.50;99.90;;;;;;5097114;28;20254;-72
2022/04/09 07:44:05;;;;;;;22.17;13.60;;;2.60;99.90;;;;;;5097250;28;20201;-72
2022/04/09 07:46:31;;;;;;;20.23;13.03;;;2.60;99.90;;;;;;5097577;28;20640;-73
2022/04/09 07:48:58;;;;;;;15.97;11.63;;;2.60;99.90;;;;;;5097468;28;20250;-74
2022/04/09 07:51:25;;;;;;;16.63;11.97;;;2.60;99.90;;;;;;5098436;28;20269;-76
2022/04/09 07:53:51;;;;;;;19.10;13.53;;;2.60;99.90;;;;;;5097999;28;20287;-75
2022/04/09 07:56:18;;;;;;;16.10;11.33;;;2.70;99.90;;;;;;5098232;28;20198;-75
2022/04/09 07:58:46;;;;;;;16.53;10.43;;;2.70;99.90;;;;;;5098647;28;20200;-76
2022/04/09 08:01:13;;;;;;;18.90;11.53;;;2.70;99.90;;;;;;5099169;28;20207;-78
2022/04/09 08:03:40;;;;;;;17.63;12.47;;;2.80;99.90;;;;;;5101989;28;20207;-76
2022/04/09 08:06:06;;;;;;;18.20;11.30;;;3.00;99.90;;;;;;5106417;28;20196;-78
2022/04/09 08:08:33;;;;;;;13.83;11.20;;;3.10;99.90;;;;;;5105648;28;20204;-75
2022/04/09 08:11:00;;;;;;;19.50;11.50;;;3.20;99.90;;;;;;5105132;28;20196;-75
2022/04/09 08:13:27;;;;;;;13.50;11.70;;;3.30;99.90;;;;;;5108231;28;20218;-77
2022/04/09 08:15:55;;;;;;;14.13;10.70;;;3.40;99.90;;;;;;5106907;28;20192;-76
2022/04/09 08:18:22;;;;;;;21.63;10.63;;;3.50;99.90;;;;;;5106465;28;20216;-76
2022/04/09 08:20:50;;;;;;;15.43;10.63;;;3.60;99.90;;;;;;5107310;28;20661;-76
2022/04/09 08:23:16;;;;;;;13.57;10.03;;;3.50;99.90;;;;;;5106102;28;20240;-78
2022/04/09 08:25:43;;;;;;;14.90;10.37;;;3.60;99.90;;;;;;5106641;28;20318;-77
2022/04/09 08:28:10;;;;;;;11.33;9.40;;;3.60;99.90;;;;;;5107057;28;20261;-77
2022/04/09 08:30:38;;;;;;;15.60;8.77;;;3.60;99.90;;;;;;5107079;28;20199;-77
2022/04/09 08:33:07;;;;;;;12.57;9.03;;;3.60;99.90;;;;;;5105914;28;20223;-77
2022/04/09 08:35:34;;;;;;;14.77;9.00;;;3.80;99.90;;;;;;5102787;28;20196;-76
2022/04/09 08:38:03;;;;;;;12.63;7.70;;;3.80;99.90;;;;;;5100252;28;20296;-76
2022/04/09 08:40:33;;;;;;;11.67;8.53;;;3.90;99.90;;;;;;5099616;28;20309;-76
2022/04/09 08:43:00;;;;;;;10.73;8.17;;;3.70;99.90;;;;;;5099394;28;20211;-77
2022/04/09 08:45:27;;;;;;;10.10;8.47;;;3.50;99.90;;;;;;5098409;28;20647;-77
2022/04/09 08:47:55;;;;;;;12.07;7.93;;;3.60;99.90;;;;;;5099115;28;20200;-76
2022/04/09 08:50:24;;;;;;;13.90;8.30;;;3.70;99.90;;;;;;5099030;28;20196;-77
2022/04/09 08:52:52;;;;;;;12.87;8.20;;;4.00;99.90;;;;;;5098669;28;20228;-75
2022/04/09 08:55:18;;;;;;;10.33;8.23;;;3.80;99.90;;;;;;5097889;28;20200;-76
2022/04/09 08:57:46;;;;;;;13.27;7.63;;;3.80;99.90;;;;;;5097974;28;20197;-74
2022/04/09 09:00:17;;;;;;;13.53;7.43;;;3.70;99.90;;;;;;5099277;28;20223;-75
2022/04/09 09:02:51;;;;;;;9.13;7.00;;;4.10;99.90;;;;;;5097991;28;20233;-75
2022/04/09 09:05:37;;;;;;;12.07;7.40;;;4.50;99.90;;;;;;5097527;28;20201;-75
2022/04/09 09:08:05;;;;;;;10.40;6.63;;;4.50;99.90;;;;;;5097817;28;20201;-75
2022/04/09 09:10:32;;;;;;;8.43;6.17;;;4.20;99.90;;;;;;5097388;28;20200;-75
2022/04/09 09:13:04;;;;;;;10.33;5.93;;;4.20;99.90;;;;;;5098114;28;20282;-75
2022/04/09 09:15:30;;;;;;;11.30;6.60;;;4.20;99.90;;;;;;5099059;28;20211;-75
2022/04/09 09:17:58;;;;;;;9.10;6.07;;;4.40;99.90;;;;;;5099756;28;20201;-75
2022/04/09 09:20:25;;;;;;;12.40;6.37;;;4.60;99.90;;;;;;5101991;28;20198;-76
2022/04/09 09:22:54;;;;;;;12.07;6.17;;;4.30;99.90;;;;;;5101000;28;20198;-75
2022/04/09 09:25:21;;;;;;;9.03;6.13;;;4.10;99.90;;;;;;5095980;28;20232;-75
2022/04/09 09:27:58;;;;;;;9.97;6.50;;;4.30;99.90;;;;;;5096059;28;20254;-74
2022/04/09 09:30:24;;;;;;;8.37;6.20;;;4.30;99.90;;;;;;5095051;28;20202;-74
2022/04/09 09:33:07;;;;;;;7.10;5.60;;;4.80;99.90;;;;;;5096288;28;20270;-75
2022/04/09 09:35:50;;;;;;;9.87;5.67;;;5.00;99.90;;;;;;5096189;28;20228;-75
2022/04/09 09:38:23;;;;;;;9.10;5.50;;;4.80;99.90;;;;;;5096326;28;20223;-76
2022/04/09 09:40:50;;;;;;;6.60;5.27;;;4.70;99.90;;;;;;5096067;28;20541;-75
2022/04/09 09:43:18;;;;;;;9.17;4.80;;;4.70;99.90;;;;;;5096613;28;20206;-75
2022/04/09 09:45:45;;;;;;;8.57;5.73;;;4.40;99.90;;;;;;5095693;28;20271;-74
2022/04/09 09:48:25;;;;;;;6.80;4.90;;;4.50;99.90;;;;;;5095520;28;20198;-74
2022/04/09 09:50:54;;;;;;;8.67;5.03;;;4.60;99.90;;;;;;5095138;28;20199;-74
2022/04/09 09:53:32;;;;;;;9.10;5.33;;;4.90;99.90;;;;;;5095447;28;20289;-75
2022/04/09 09:56:00;;;;;;;8.90;5.77;;;5.00;99.90;;;;;;5096524;28;20199;-75
2022/04/09 09:58:28;;;;;;;10.87;5.10;;;5.30;99.90;;;;;;5095577;28;20199;-75
2022/04/09 10:00:57;;;;;;;8.63;5.33;;;5.10;99.90;;;;;;5094172;28;20249;-75
2022/04/09 10:03:25;;;;;;;10.83;5.33;;;5.50;99.90;;;;;;5093681;28;20204;-75
2022/04/09 10:05:52;;;;;;;11.47;5.37;;;5.60;99.90;;;;;;5098083;28;20204;-75
2022/04/09 10:08:19;;;;;;;7.23;4.87;;;5.90;99.90;;;;;;5097249;28;20222;-76
2022/04/09 10:10:50;;;;;;;8.97;5.10;;;6.10;99.90;;;;;;5098041;28;20208;-76
2022/04/09 10:13:20;;;;;;;5.77;4.30;;;5.70;99.90;;;;;;5099482;28;20454;-76
2022/04/09 10:15:50;;;;;;;6.93;5.07;;;5.90;99.90;;;;;;5099765;28;20283;-77
2022/04/09 10:18:20;;;;;;;6.20;4.27;;;5.30;99.90;;;;;;5098405;28;20239;-75
2022/04/09 10:20:50;;;;;;;7.67;4.60;;;5.70;99.90;;;;;;5096310;28;20204;-76
2022/04/09 10:23:22;;;;;;;9.63;5.37;;;5.80;99.90;;;;;;5098661;28;20262;-75
2022/04/09 10:25:52;;;;;;;7.60;4.43;;;6.20;99.90;;;;;;5096371;28;20598;-76
2022/04/09 10:28:31;;;;;;;8.20;4.30;;;6.10;99.90;;;;;;5094160;28;20206;-75
2022/04/09 10:30:58;;;;;;;6.37;4.00;;;7.20;99.90;;;;;;5095087;28;20224;-75
2022/04/09 10:33:28;;;;;;;7.50;3.50;;;7.00;99.90;;;;;;5095274;28;20224;-75
2022/04/09 10:36:00;;;;;;;7.40;4.13;;;7.00;99.90;;;;;;5095360;28;20196;-75
2022/04/09 10:38:28;;;;;;;8.63;4.40;;;7.00;99.90;;;;;;5095082;28;20200;-75
2022/04/09 10:41:27;;;;;;;10.00;4.70;;;7.40;99.90;;;;;;5095449;28;20207;-75
2022/04/09 10:43:57;;;;;;;8.00;4.80;;;8.00;99.90;;;;;;5098753;28;20199;-75
2022/04/09 10:46:36;;;;;;;12.43;4.83;;;7.90;99.90;;;;;;5097336;28;20195;-75
2022/04/09 10:49:17;;;;;;;8.17;3.97;;;8.80;99.90;;;;;;5097204;28;20200;-75
2022/04/09 10:52:06;;;;;;;6.90;4.10;;;8.90;99.90;;;;;;5097025;28;20203;-75
2022/04/09 10:54:33;;;;;;;9.90;4.37;;;8.50;99.90;;;;;;5097395;28;20199;-74
2022/04/09 10:57:21;;;;;;;8.97;4.30;;;8.20;99.90;;;;;;5097563;28;20199;-74
2022/04/09 10:59:58;;;;;;;7.57;4.03;;;8.20;99.90;;;;;;5097414;28;20192;-75
2022/04/09 11:02:25;;;;;;;6.70;3.70;;;7.70;99.90;;;;;;5097586;28;20566;-75
2022/04/09 11:04:53;;;;;;;8.97;3.43;;;8.10;99.90;;;;;;5097262;28;20254;-75
2022/04/09 11:07:20;;;;;;;7.73;3.37;;;8.50;99.90;;;;;;5097117;28;20648;-74
2022/04/09 11:09:52;;;;;;;6.53;2.97;;;8.00;99.90;;;;;;5097559;28;20218;-74
2022/04/09 11:12:24;;;;;;;5.80;3.50;;;8.20;99.90;;;;;;5098053;28;20761;-72
2022/04/09 11:14:54;;;;;;;5.43;3.10;;;8.00;99.90;;;;;;5097764;28;20533;-73
2022/04/09 11:17:28;;;;;;;6.70;3.60;;;9.00;99.90;;;;;;5097108;28;20197;-75
2022/04/09 11:19:55;;;;;;;8.20;3.50;;;9.60;99.90;;;;;;5096811;28;20200;-74
2022/04/09 11:22:30;;;;;;;5.00;3.43;;;9.70;99.90;;;;;;5097053;28;20197;-76
2022/04/09 11:24:56;;;;;;;6.77;3.57;;;8.40;99.90;;;;;;5097780;28;20228;-75
2022/04/09 11:27:26;;;;;;;7.67;3.80;;;8.70;99.90;;;;;;5097610;28;20196;-76
2022/04/09 11:29:54;;;;;;;7.70;3.40;;;8.30;99.90;;;;;;5096954;28;20200;-75
2022/04/09 11:32:21;;;;;;;5.57;3.53;;;7.80;99.90;;;;;;5095039;28;20307;-75
2022/04/09 11:34:49;;;;;;;8.50;3.60;;;8.50;99.90;;;;;;5096351;28;20200;-75
2022/04/09 11:37:16;;;;;;;5.70;3.63;;;8.10;99.90;;;;;;5097053;28;20266;-75
2022/04/09 11:39:45;;;;;;;10.43;3.60;;;8.50;99.90;;;;;;5096844;28;20593;-75
2022/04/09 11:42:12;;;;;;;8.97;3.80;;;9.10;99.90;;;;;;5097479;28;20196;-75
2022/04/09 11:44:40;;;;;;;6.83;3.90;;;9.00;99.90;;;;;;5096680;28;20200;-76
2022/04/09 11:47:13;;;;;;;7.47;3.33;;;8.80;99.90;;;;;;5097601;28;20396;-75
2022/04/09 11:49:41;;;;;;;9.33;3.50;;;7.90;99.90;;;;;;5098530;28;20196;-74
2022/04/09 11:52:08;;;;;;;7.23;3.50;;;7.80;99.90;;;;;;5097016;28;20200;-74
2022/04/09 11:54:38;;;;;;;5.07;2.70;;;9.10;99.90;;;;;;5096585;28;20200;-75
2022/04/09 11:57:10;;;;;;;4.20;2.67;;;8.80;98.00;;;;;;5096743;28;20623;-75
2022/04/09 11:59:37;;;;;;;10.53;7.40;;;8.60;96.00;;;;;;5096832;28;20205;-74
2022/04/09 12:02:23;;;;;;;7.23;3.13;;;8.30;99.90;;;;;;5097481;28;20285;-75
2022/04/09 12:04:50;;;;;;;12.87;3.87;;;7.50;99.90;;;;;;5099429;28;20196;-75
2022/04/09 12:07:18;;;;;;;8.70;3.60;;;7.50;99.90;;;;;;5098249;28;20559;-75
2022/04/09 12:09:45;;;;;;;9.07;3.27;;;8.90;99.90;;;;;;5097307;28;20193;-76
2022/04/09 12:12:12;;;;;;;8.27;3.70;;;10.20;91.30;;;;;;5095701;28;20200;-76
2022/04/09 12:14:40;;;;;;;5.27;3.00;;;10.20;90.40;;;;;;5095505;28;20200;-74
2022/04/09 12:17:13;;;;;;;6.67;3.17;;;10.50;79.70;;;;;;5095452;28;20287;-74
2022/04/09 12:19:43;;;;;;;6.23;3.00;;;10.30;82.50;;;;;;5095114;28;20203;-74
2022/04/09 12:22:14;;;;;;;5.97;3.63;;;11.40;75.90;;;;;;5094906;28;20196;-75
2022/04/09 12:24:49;;;;;;;4.73;2.83;;;11.90;68.10;;;;;;5094796;28;20604;-74
2022/04/09 12:27:16;;;;;;;7.30;3.13;;;11.00;70.20;;;;;;5095066;28;20249;-74
2022/04/09 12:29:52;;;;;;;6.20;3.57;;;11.00;63.20;;;;;;5095074;28;20200;-74
2022/04/09 12:32:24;;;;;;;7.27;3.10;;;10.80;67.50;;;;;;5094901;28;20265;-74
2022/04/09 12:34:55;;;;;;;7.30;2.77;;;9.70;64.10;;;;;;5094983;28;20227;-74
2022/04/09 12:37:22;;;;;;;5.07;3.17;;;9.10;70.80;;;;;;5095798;28;20651;-74
2022/04/09 12:39:50;;;;;;;6.00;3.20;;;9.30;74.80;;;;;;5095289;28;20200;-74
2022/04/09 12:42:16;;;;;;;6.13;2.93;;;9.70;71.00;;;;;;5094623;28;20253;-76
2022/04/09 12:44:44;;;;;;;6.03;2.43;;;10.50;68.90;;;;;;5094514;28;20712;-74
2022/04/09 12:47:11;;;;;;;4.93;3.17;;;10.60;62.90;;;;;;5094456;28;20477;-76
2022/04/09 12:49:40;;;;;;;4.83;3.07;;;10.90;56.60;;;;;;5094861;28;20192;-76
2022/04/09 12:52:10;;;;;;;6.07;2.97;;;11.10;56.60;;;;;;5094524;28;20199;-76